createdAt,value
2019-02-04T00:00:42.903Z,25.79
2019-02-04T00:03:44.206Z,25.77
2019-02-04T00:06:45.924Z,25.76
2019-02-04T00:09:47.312Z,25.75
2019-02-04T00:12:48.563Z,25.73
2019-02-04T00:15:50.383Z,25.72
2019-02-04T00:18:51.755Z,25.71
2019-02-04T00:21:53.099Z,25.70
2019-02-04T00:24:54.366Z,25.68
2019-02-04T00:27:55.803Z,25.67
2019-02-04T00:30:57.035Z,25.65
2019-02-04T00:33:58.411Z,25.65
2019-02-04T00:36:59.840Z,25.64
2019-02-04T00:40:01.323Z,25.63
2019-02-04T00:43:02.767Z,25.61
2019-02-04T00:46:04.215Z,25.61
2019-02-04T00:49:05.985Z,25.61
2019-02-04T00:52:07.439Z,25.60
2019-02-04T00:55:09.078Z,25.58
2019-02-04T00:58:10.442Z,25.58
2019-02-04T01:01:11.779Z,25.57
2019-02-04T01:04:13.180Z,25.57
2019-02-04T01:07:14.599Z,25.55
2019-02-04T01:10:18.560Z,25.54
2019-02-04T01:13:20.019Z,25.53
2019-02-04T01:16:21.399Z,25.53
2019-02-04T01:19:22.783Z,25.52
2019-02-04T01:22:24.224Z,25.51
2019-02-04T01:25:25.543Z,25.50
2019-02-04T01:28:26.935Z,25.49
2019-02-04T01:31:28.562Z,25.48
2019-02-04T01:34:29.935Z,25.46
2019-02-04T01:37:31.182Z,25.46
2019-02-04T01:40:32.823Z,25.45
2019-02-04T01:43:34.199Z,25.45
2019-02-04T01:46:35.627Z,25.42
2019-02-04T01:49:37.007Z,25.42
2019-02-04T01:52:38.563Z,25.40
2019-02-04T01:55:39.988Z,25.41
2019-02-04T01:58:41.262Z,25.41
2019-02-04T02:01:42.692Z,25.38
2019-02-04T02:04:43.986Z,25.38
2019-02-04T02:07:45.510Z,25.37
2019-02-04T02:10:46.838Z,25.37
2019-02-04T02:13:48.494Z,25.36
2019-02-04T02:16:49.851Z,25.34
2019-02-04T02:19:51.222Z,25.33
2019-02-04T02:22:52.837Z,25.31
2019-02-04T02:25:54.213Z,25.31
2019-02-04T02:28:55.587Z,25.31
2019-02-04T02:31:57.018Z,25.29
2019-02-04T02:34:58.441Z,25.28
2019-02-04T02:37:59.843Z,25.28
2019-02-04T02:41:01.068Z,25.27
2019-02-04T02:44:02.443Z,25.26
2019-02-04T02:47:03.987Z,25.25
2019-02-04T02:50:06.639Z,25.24
2019-02-04T02:53:08.136Z,25.23
2019-02-04T02:56:09.975Z,25.22
2019-02-04T02:59:11.450Z,25.22
2019-02-04T03:02:12.699Z,25.21
2019-02-04T03:05:14.293Z,25.20
2019-02-04T03:08:15.711Z,25.19
2019-02-04T03:11:17.147Z,25.19
2019-02-04T03:14:18.491Z,25.17
2019-02-04T03:17:19.843Z,25.17
2019-02-04T03:20:21.335Z,25.15
2019-02-04T03:23:22.776Z,25.14
2019-02-04T03:26:24.204Z,25.13
2019-02-04T03:29:25.784Z,25.13
2019-02-04T03:32:27.324Z,25.13
2019-02-04T03:35:28.830Z,25.12
2019-02-04T03:38:30.655Z,25.10
2019-02-04T03:41:32.398Z,25.09
2019-02-04T03:44:33.783Z,25.08
2019-02-04T03:47:35.201Z,25.08
2019-02-04T03:50:36.479Z,25.08
2019-02-04T03:53:37.914Z,25.07
2019-02-04T03:56:39.139Z,25.07
2019-02-04T03:59:40.519Z,25.06
2019-02-04T04:02:41.967Z,25.06
2019-02-04T04:05:43.327Z,25.04
2019-02-04T04:08:44.836Z,25.04
2019-02-04T04:11:46.218Z,25.03
2019-02-04T04:14:47.590Z,25.03
2019-02-04T04:17:49.014Z,25.02
2019-02-04T04:20:50.708Z,25.01
2019-02-04T04:23:52.146Z,24.99
2019-02-04T04:26:53.370Z,24.99
2019-02-04T04:29:54.746Z,24.98
2019-02-04T04:32:56.181Z,24.98
2019-02-04T04:35:57.552Z,24.97
2019-02-04T04:38:58.803Z,24.96
2019-02-04T04:42:00.232Z,24.94
2019-02-04T04:45:01.729Z,24.94
2019-02-04T04:48:03.243Z,24.93
2019-02-04T04:51:04.717Z,24.93
2019-02-04T04:54:06.270Z,24.92
2019-02-04T04:57:07.627Z,24.92
2019-02-04T05:00:12.826Z,24.91
2019-02-04T05:03:14.427Z,24.90
2019-02-04T05:06:15.875Z,24.89
2019-02-04T05:09:17.128Z,24.89
2019-02-04T05:12:18.351Z,24.89
2019-02-04T05:15:21.719Z,24.88
2019-02-04T05:18:23.103Z,24.87
2019-02-04T05:21:24.479Z,24.87
2019-02-04T05:24:25.927Z,24.87
2019-02-04T05:27:27.363Z,24.86
2019-02-04T05:30:28.739Z,24.85
2019-02-04T05:33:30.206Z,24.85
2019-02-04T05:36:31.639Z,24.84
2019-02-04T05:39:32.991Z,24.84
2019-02-04T05:42:34.759Z,24.83
2019-02-04T05:45:36.508Z,24.83
2019-02-04T05:48:48.789Z,24.82
2019-02-04T05:51:41.054Z,24.81
2019-02-04T05:54:42.507Z,24.80
2019-02-04T05:57:43.835Z,24.79
2019-02-04T06:00:45.207Z,24.78
2019-02-04T06:03:46.479Z,24.78
2019-02-04T06:06:47.892Z,24.78
2019-02-04T06:09:49.267Z,24.77
2019-02-04T06:12:50.795Z,24.77
2019-02-04T06:15:52.262Z,24.75
2019-02-04T06:19:00.454Z,24.76
2019-02-04T06:21:57.016Z,24.76
2019-02-04T06:24:58.267Z,24.74
2019-02-04T06:28:00.025Z,24.74
2019-02-04T06:31:01.382Z,24.74
2019-02-04T06:34:03.169Z,24.74
2019-02-04T06:37:04.579Z,24.74
2019-02-04T06:40:07.755Z,24.73
2019-02-04T06:43:09.129Z,24.72
2019-02-04T06:46:10.507Z,24.72
2019-02-04T06:49:12.761Z,24.71
2019-02-04T06:52:14.095Z,24.71
2019-02-04T06:55:18.094Z,24.69
2019-02-04T06:58:19.471Z,24.69
2019-02-04T07:01:20.838Z,24.68
2019-02-04T07:04:22.147Z,24.68
2019-02-04T07:07:23.518Z,24.67
2019-02-04T07:10:25.515Z,24.67
2019-02-04T07:13:26.929Z,24.66
2019-02-04T07:16:28.303Z,24.64
2019-02-04T07:19:29.635Z,24.64
2019-02-04T07:22:31.011Z,24.64
2019-02-04T07:25:32.476Z,24.63
2019-02-04T07:28:33.686Z,24.61
2019-02-04T07:31:35.064Z,24.61
2019-02-04T07:34:36.510Z,24.61
2019-02-04T07:37:37.843Z,24.60
2019-02-04T07:40:39.220Z,24.61
2019-02-04T07:43:40.542Z,24.60
2019-02-04T07:46:41.916Z,24.60
2019-02-04T07:49:43.164Z,24.59
2019-02-04T07:52:44.791Z,24.59
2019-02-04T07:55:46.179Z,24.58
2019-02-04T07:58:47.611Z,24.57
2019-02-04T08:01:48.979Z,24.58
2019-02-04T08:04:50.384Z,24.57
2019-02-04T08:07:52.187Z,24.57
2019-02-04T08:10:53.443Z,24.56
2019-02-04T08:13:54.766Z,24.57
2019-02-04T08:16:56.150Z,24.56
2019-02-04T08:19:57.396Z,24.56
2019-02-04T08:22:58.726Z,24.55
2019-02-04T08:26:00.097Z,24.54
2019-02-04T08:29:01.531Z,24.54
2019-02-04T08:32:03.106Z,24.54
2019-02-04T08:35:05.106Z,24.54
2019-02-04T08:38:06.519Z,24.52
2019-02-04T08:41:08.294Z,24.51
2019-02-04T08:44:09.720Z,24.52
2019-02-04T08:47:22.338Z,24.51
2019-02-04T08:50:16.391Z,24.50
2019-02-04T08:53:17.768Z,24.50
2019-02-04T08:56:19.144Z,24.49
2019-02-04T08:59:20.572Z,24.49
2019-02-04T09:02:21.848Z,24.49
2019-02-04T09:05:23.823Z,24.48
2019-02-04T09:08:25.339Z,24.48
2019-02-04T09:11:26.818Z,24.48
2019-02-04T09:14:28.247Z,24.46
2019-02-04T09:17:29.635Z,24.46
2019-02-04T09:20:31.166Z,24.46
2019-02-04T09:23:32.395Z,24.45
2019-02-04T09:26:33.772Z,24.45
2019-02-04T09:29:35.330Z,24.45
2019-02-04T09:32:36.787Z,24.45
2019-02-04T09:35:38.235Z,24.46
2019-02-04T09:38:39.771Z,24.46
2019-02-04T09:41:41.043Z,24.45
2019-02-04T09:44:42.467Z,24.46
2019-02-04T09:47:44.157Z,24.44
2019-02-04T09:50:47.407Z,24.44
2019-02-04T09:53:49.378Z,24.44
2019-02-04T09:56:50.767Z,24.44
2019-02-04T09:59:52.338Z,24.45
2019-02-04T10:02:54.086Z,24.45
2019-02-04T10:05:55.560Z,24.44
2019-02-04T10:08:56.963Z,24.43
2019-02-04T10:11:58.334Z,24.43
2019-02-04T10:14:59.678Z,24.42
2019-02-04T10:18:01.148Z,24.43
2019-02-04T10:21:02.601Z,24.44
2019-02-04T10:24:04.050Z,24.43
2019-02-04T10:27:05.317Z,24.44
2019-02-04T10:30:10.605Z,24.43
2019-02-04T10:33:12.007Z,24.43
2019-02-04T10:36:13.453Z,24.43
2019-02-04T10:39:14.674Z,24.43
2019-02-04T10:42:16.047Z,24.43
2019-02-04T10:45:17.994Z,24.44
2019-02-04T10:48:19.386Z,24.43
2019-02-04T10:51:20.897Z,24.43
2019-02-04T10:54:22.283Z,24.43
2019-02-04T10:57:23.638Z,24.42
2019-02-04T11:00:27.184Z,24.42
2019-02-04T11:03:28.700Z,24.41
2019-02-04T11:06:30.135Z,24.42
2019-02-04T11:09:31.710Z,24.42
2019-02-04T11:12:33.956Z,24.42
2019-02-04T11:15:35.396Z,24.42
2019-02-04T11:18:36.799Z,24.44
2019-02-04T11:21:38.248Z,24.42
2019-02-04T11:24:39.646Z,24.42
2019-02-04T11:27:41.426Z,24.42
2019-02-04T11:30:54.628Z,24.41
2019-02-04T11:33:56.015Z,24.42
2019-02-04T11:36:57.497Z,24.41
2019-02-04T11:39:58.899Z,24.42
2019-02-04T11:43:00.326Z,24.41
2019-02-04T11:46:02.121Z,24.41
2019-02-04T11:49:03.586Z,24.41
2019-02-04T11:52:05.077Z,24.41
2019-02-04T11:55:07.360Z,24.39
2019-02-04T11:58:08.773Z,24.39
2019-02-04T12:01:10.198Z,24.40
2019-02-04T12:04:11.607Z,24.42
2019-02-04T12:07:13.027Z,24.41
2019-02-04T12:10:26.419Z,24.40
2019-02-04T12:13:27.815Z,24.40
2019-02-04T12:16:29.199Z,24.41
2019-02-04T12:19:30.490Z,24.41
2019-02-04T12:22:31.872Z,24.41
2019-02-04T12:25:33.295Z,24.41
2019-02-04T12:28:34.670Z,24.41
2019-02-04T12:31:36.223Z,24.40
2019-02-04T12:34:37.538Z,24.40
2019-02-04T12:37:39.339Z,24.39
2019-02-04T12:40:40.762Z,24.39
2019-02-04T12:43:42.240Z,24.40
2019-02-04T12:46:43.603Z,24.40
2019-02-04T12:49:45.030Z,24.40
2019-02-04T12:52:46.400Z,24.40
2019-02-04T12:55:47.829Z,24.41
2019-02-04T12:58:55.577Z,24.40
2019-02-04T13:01:52.498Z,24.37
2019-02-04T13:04:53.748Z,24.40
2019-02-04T13:07:55.198Z,24.40
2019-02-04T13:10:56.942Z,24.40
2019-02-04T13:13:58.317Z,24.40
2019-02-04T13:16:59.666Z,24.38
2019-02-04T13:20:01.099Z,24.40
2019-02-04T13:23:02.691Z,24.38
2019-02-04T13:26:04.405Z,24.38
2019-02-04T13:29:05.887Z,24.41
2019-02-04T13:32:07.138Z,24.39
2019-02-04T13:35:08.878Z,24.38
2019-02-04T13:38:10.246Z,24.40
2019-02-04T13:41:11.985Z,24.38
2019-02-04T13:44:13.575Z,24.40
2019-02-04T13:47:15.015Z,24.38
2019-02-04T13:50:18.663Z,24.39
2019-02-04T13:53:20.283Z,24.37
2019-02-04T13:56:21.607Z,24.36
2019-02-04T13:59:22.980Z,24.36
2019-02-04T14:02:24.232Z,24.36
2019-02-04T14:05:26.035Z,24.37
2019-02-04T14:08:27.461Z,24.36
2019-02-04T14:11:28.893Z,24.36
2019-02-04T14:14:30.147Z,24.36
2019-02-04T14:17:31.396Z,24.36
2019-02-04T14:20:32.832Z,24.36
2019-02-04T14:23:34.215Z,24.36
2019-02-04T14:26:35.628Z,24.36
2019-02-04T14:29:37.003Z,24.35
2019-02-04T14:32:38.367Z,24.35
2019-02-04T14:35:40.208Z,24.35
2019-02-04T14:38:41.574Z,24.34
2019-02-04T14:41:43.000Z,24.34
2019-02-04T14:45:06.667Z,24.35
2019-02-04T14:48:25.215Z,24.34
2019-02-04T14:51:52.967Z,24.29
2019-02-04T14:55:31.304Z,24.29
2019-02-04T14:58:48.836Z,24.23
2019-02-04T15:02:38.835Z,24.20
2019-02-04T15:06:15.024Z,24.21
2019-02-04T15:10:16.835Z,24.18
2019-02-04T15:13:48.112Z,24.16
2019-02-04T15:16:57.328Z,24.14
2019-02-04T15:20:36.540Z,24.16
2019-02-04T15:24:35.604Z,24.19
2019-02-04T15:28:17.776Z,24.15
2019-02-04T15:31:33.792Z,24.14
2019-02-04T15:35:06.483Z,24.13
2019-02-04T15:41:12.694Z,24.09
2019-02-04T15:45:06.580Z,22.17
2019-02-04T15:48:23.326Z,19.65
2019-02-04T15:51:31.481Z,17.35
2019-02-04T15:54:34.185Z,15.84
2019-02-04T15:57:35.723Z,14.70
2019-02-04T16:00:39.196Z,13.78
2019-02-04T16:03:41.544Z,13.02
2019-02-04T16:06:48.776Z,12.35
2019-02-04T16:09:52.785Z,11.79
2019-02-04T16:12:55.213Z,11.25
2019-02-04T16:15:56.774Z,10.84
2019-02-04T16:19:04.281Z,10.48
2019-02-04T16:22:06.245Z,10.18
2019-02-04T16:25:11.344Z,9.88
2019-02-04T16:28:13.736Z,9.63
2019-02-04T16:31:23.380Z,9.41
2019-02-04T16:34:24.913Z,9.20
2019-02-04T16:37:27.425Z,9.00
2019-02-04T16:40:28.842Z,8.86
2019-02-04T16:43:38.103Z,8.74
2019-02-04T16:46:39.553Z,8.63
2019-02-04T16:49:50.676Z,8.50
2019-02-04T16:53:09.962Z,8.41
2019-02-04T16:56:03.265Z,8.33
2019-02-04T16:59:11.480Z,8.24
2019-02-04T17:02:14.113Z,8.19
2019-02-04T17:08:53.480Z,8.11
2019-02-04T17:12:01.182Z,8.00
2019-02-04T17:15:17.728Z,7.97
2019-02-04T17:18:19.389Z,7.93
2019-02-04T17:21:23.376Z,7.88
2019-02-04T17:24:29.444Z,7.87
2019-02-04T17:27:41.570Z,7.86
2019-02-04T17:30:43.012Z,7.85
2019-02-04T17:34:04.617Z,7.83
2019-02-04T17:37:16.715Z,7.83
2019-02-04T17:40:32.650Z,7.81
2019-02-04T17:43:34.207Z,7.80
2019-02-04T17:47:03.121Z,7.79
2019-02-04T17:50:20.188Z,7.79
2019-02-04T17:53:34.187Z,7.74
2019-02-04T17:56:36.215Z,7.72
2019-02-04T17:59:48.556Z,7.71
2019-02-04T18:02:50.110Z,7.72
2019-02-04T18:05:51.469Z,7.70
2019-02-04T18:08:52.934Z,7.71
2019-02-04T18:12:12.793Z,7.73
2019-02-04T18:15:15.715Z,7.74
2019-02-04T18:18:20.197Z,7.72
2019-02-04T18:21:27.793Z,7.72
2019-02-04T18:24:47.393Z,7.73
2019-02-04T18:27:49.793Z,7.73
2019-02-04T18:31:01.390Z,7.69
2019-02-04T18:34:09.044Z,7.69
2019-02-04T18:37:10.503Z,7.68
2019-02-04T18:40:13.128Z,7.69
2019-02-04T18:43:14.723Z,7.69
2019-02-04T18:46:22.109Z,7.70
2019-02-04T18:49:30.349Z,7.72
2019-02-04T18:52:31.791Z,7.71
2019-02-04T18:55:35.181Z,7.69
2019-02-04T18:58:43.613Z,7.71
2019-02-04T19:01:57.119Z,7.72
2019-02-04T19:04:59.568Z,7.70
2019-02-04T19:08:00.964Z,7.70
2019-02-04T19:11:36.150Z,7.69
2019-02-04T19:14:54.863Z,7.70
2019-02-04T19:18:07.648Z,7.66
2019-02-04T19:21:38.315Z,7.63
2019-02-04T19:24:39.822Z,7.64
2019-02-04T19:27:50.600Z,7.60
2019-02-04T19:30:58.925Z,7.63
2019-02-04T19:34:09.516Z,7.64
2019-02-04T19:37:35.680Z,7.66
2019-02-04T19:41:01.973Z,7.66
2019-02-04T19:44:04.542Z,7.63
2019-02-04T19:47:12.170Z,7.61
2019-02-04T19:50:22.303Z,7.62
2019-02-04T19:53:29.953Z,7.64
2019-02-04T19:56:31.375Z,7.65
2019-02-04T19:59:35.397Z,7.65
2019-02-04T20:02:45.976Z,7.68
2019-02-04T20:05:59.160Z,7.70
2019-02-04T20:09:10.419Z,7.69
2019-02-04T20:12:22.359Z,7.69
2019-02-04T20:15:45.959Z,7.69
2019-02-04T20:18:47.642Z,7.68
2019-02-04T20:21:52.443Z,7.66
2019-02-04T20:25:03.896Z,7.67
2019-02-04T20:28:11.261Z,7.69
2019-02-04T20:31:14.754Z,7.68
2019-02-04T20:34:26.000Z,7.69
2019-02-04T20:37:45.917Z,7.71
2019-02-04T20:40:47.517Z,7.70
2019-02-04T20:44:07.869Z,7.68
2019-02-04T20:47:09.392Z,7.71
2019-02-04T20:50:23.012Z,7.68
2019-02-04T20:53:27.047Z,7.70
2019-02-04T20:56:28.390Z,7.71
2019-02-04T20:59:39.473Z,7.72
2019-02-04T21:02:56.494Z,7.74
2019-02-04T21:06:04.881Z,7.72
2019-02-04T21:09:28.360Z,7.70
2019-02-04T21:12:35.903Z,7.71
2019-02-04T21:15:53.920Z,7.69
2019-02-04T21:18:57.347Z,7.69
2019-02-04T21:22:03.464Z,7.71
2019-02-04T21:25:06.958Z,7.76
2019-02-04T21:28:10.405Z,7.84
2019-02-04T21:31:17.855Z,7.90
2019-02-04T21:34:25.499Z,7.97
2019-02-04T21:37:26.832Z,8.03
2019-02-04T21:40:34.283Z,8.08
2019-02-04T21:43:52.742Z,8.13
2019-02-04T21:46:55.584Z,8.19
2019-02-04T21:49:59.943Z,8.22
2019-02-04T21:53:08.049Z,8.28
2019-02-04T21:56:10.690Z,8.33
2019-02-04T21:59:12.729Z,8.38
2019-02-04T22:02:17.169Z,8.42
2019-02-04T22:05:20.773Z,8.46
2019-02-04T22:08:34.218Z,8.52
2019-02-04T22:11:35.720Z,8.55
2019-02-04T22:14:46.533Z,8.58
2019-02-04T22:17:56.120Z,8.60
2019-02-04T22:21:04.629Z,8.62
2019-02-04T22:24:06.069Z,8.65
2019-02-04T22:27:07.539Z,8.68
2019-02-04T22:30:17.722Z,8.70
2019-02-04T22:33:20.155Z,8.73
2019-02-04T22:36:23.852Z,8.75
2019-02-04T22:39:25.457Z,8.76
2019-02-04T22:42:26.821Z,8.78
2019-02-04T22:45:31.841Z,8.79
2019-02-04T22:48:37.844Z,8.81
2019-02-04T22:52:00.999Z,8.82
2019-02-04T22:55:11.110Z,8.81
2019-02-04T22:58:15.836Z,8.79
2019-02-04T23:01:47.120Z,8.80
2019-02-04T23:05:05.396Z,8.81
2019-02-04T23:08:13.288Z,8.79
2019-02-04T23:11:28.097Z,8.78
2019-02-04T23:14:31.468Z,8.78
2019-02-04T23:17:37.851Z,8.78
2019-02-04T23:20:41.826Z,8.80
2019-02-04T23:23:47.153Z,8.79
2019-02-04T23:26:50.477Z,8.81
2019-02-04T23:29:54.913Z,8.80
2019-02-04T23:32:56.388Z,8.81
2019-02-04T23:36:03.700Z,8.81
2019-02-04T23:39:07.799Z,8.80
2019-02-04T23:42:11.571Z,8.81
2019-02-04T23:45:14.291Z,8.80
2019-02-04T23:48:17.108Z,8.79
2019-02-04T23:51:21.570Z,8.78
2019-02-04T23:54:24.863Z,8.77
2019-02-04T23:57:50.674Z,8.76
